createdAt,value
2023-01-11T00:00:49.504Z,12.68
2023-01-11T00:03:17.403Z,12.68
2023-01-11T00:05:45.481Z,12.63
2023-01-11T00:08:12.881Z,12.61
2023-01-11T00:10:40.009Z,12.59
2023-01-11T00:13:07.330Z,12.56
2023-01-11T00:15:36.288Z,12.53
2023-01-11T00:18:03.193Z,12.52
2023-01-11T00:20:30.323Z,12.50
2023-01-11T00:22:57.119Z,12.49
2023-01-11T00:25:24.007Z,12.48
2023-01-11T00:27:50.903Z,12.46
2023-01-11T00:30:18.719Z,12.45
2023-01-11T00:32:45.717Z,12.44
2023-01-11T00:35:12.619Z,12.40
2023-01-11T00:37:39.987Z,12.42
2023-01-11T00:40:07.481Z,12.40
2023-01-11T00:42:52.917Z,12.38
2023-01-11T00:45:38.468Z,12.39
2023-01-11T00:48:07.102Z,12.38
2023-01-11T00:50:36.133Z,12.38
2023-01-11T00:53:03.864Z,12.36
2023-01-11T00:55:32.169Z,12.33
2023-01-11T00:57:59.269Z,12.32
2023-01-11T01:00:26.619Z,12.33
2023-01-11T01:02:53.645Z,12.32
2023-01-11T01:05:21.044Z,12.30
2023-01-11T01:07:48.048Z,12.29
2023-01-11T01:10:16.307Z,12.30
2023-01-11T01:13:01.502Z,12.28
2023-01-11T01:15:28.657Z,12.27
2023-01-11T01:17:56.225Z,12.24
2023-01-11T01:20:24.067Z,12.26
2023-01-11T01:22:51.286Z,12.24
2023-01-11T01:25:18.700Z,12.28
2023-01-11T01:27:45.560Z,12.26
2023-01-11T01:30:13.177Z,12.27
2023-01-11T01:32:40.285Z,12.29
2023-01-11T01:35:07.733Z,12.28
2023-01-11T01:37:34.630Z,12.26
2023-01-11T01:40:01.442Z,12.25
2023-01-11T01:42:28.310Z,12.24
2023-01-11T01:45:10.623Z,12.26
2023-01-11T01:47:47.788Z,12.27
2023-01-11T01:50:27.126Z,12.27
2023-01-11T01:53:00.814Z,12.26
2023-01-11T01:55:36.035Z,12.24
2023-01-11T01:58:07.489Z,12.21
2023-01-11T02:00:34.362Z,12.19
2023-01-11T02:03:02.048Z,12.18
2023-01-11T02:05:29.008Z,12.19
2023-01-11T02:07:57.590Z,12.17
2023-01-11T02:10:27.543Z,12.15
2023-01-11T02:13:02.446Z,12.13
2023-01-11T02:15:29.469Z,12.12
2023-01-11T02:17:56.327Z,12.13
2023-01-11T02:20:36.626Z,12.14
2023-01-11T02:23:10.775Z,12.14
2023-01-11T02:26:14.338Z,12.15
2023-01-11T02:28:53.939Z,12.17
2023-01-11T02:31:27.557Z,12.15
2023-01-11T02:34:37.958Z,12.14
2023-01-11T02:37:12.921Z,12.11
2023-01-11T02:39:49.587Z,12.08
2023-01-11T02:42:54.018Z,12.06
2023-01-11T02:45:27.564Z,12.08
2023-01-11T02:48:31.467Z,12.02
2023-01-11T02:51:04.094Z,11.96
2023-01-11T02:53:48.321Z,11.97
2023-01-11T02:56:22.061Z,11.97
2023-01-11T02:58:51.540Z,11.93
2023-01-11T03:01:19.833Z,11.93
2023-01-11T03:03:46.642Z,11.96
2023-01-11T03:06:16.546Z,11.97
2023-01-11T03:09:10.325Z,11.96
2023-01-11T03:11:55.658Z,11.98
2023-01-11T03:14:40.746Z,11.89
2023-01-11T03:17:19.366Z,11.91
2023-01-11T03:19:59.452Z,11.86
2023-01-11T03:22:33.794Z,11.86
2023-01-11T03:25:03.358Z,11.81
2023-01-11T03:27:36.170Z,11.79
2023-01-11T03:30:11.350Z,11.78
2023-01-11T03:32:47.163Z,11.76
2023-01-11T03:35:52.871Z,11.77
2023-01-11T03:38:51.963Z,11.77
2023-01-11T03:41:26.026Z,11.73
2023-01-11T03:43:55.675Z,11.70
2023-01-11T03:46:27.101Z,11.72
2023-01-11T03:49:05.254Z,11.70
2023-01-11T03:51:36.396Z,11.67
2023-01-11T03:54:05.739Z,11.65
2023-01-11T03:56:37.777Z,11.64
2023-01-11T03:59:04.799Z,11.64
2023-01-11T04:01:31.701Z,11.62
2023-01-11T04:03:58.568Z,11.64
2023-01-11T04:06:26.009Z,11.62
2023-01-11T04:08:52.794Z,11.58
2023-01-11T04:11:19.815Z,11.58
2023-01-11T04:13:46.660Z,11.54
2023-01-11T04:16:13.479Z,11.50
2023-01-11T04:18:40.372Z,11.44
2023-01-11T04:21:07.290Z,11.44
2023-01-11T04:23:34.132Z,11.43
2023-01-11T04:26:00.951Z,11.40
2023-01-11T04:28:27.767Z,11.40
2023-01-11T04:30:54.608Z,11.38
2023-01-11T04:33:21.475Z,11.37
2023-01-11T04:35:49.992Z,11.43
2023-01-11T04:38:16.959Z,11.40
2023-01-11T04:40:43.755Z,11.38
2023-01-11T04:43:10.549Z,11.39
2023-01-11T04:45:37.398Z,11.36
2023-01-11T04:48:04.447Z,11.36
2023-01-11T04:50:31.284Z,11.32
2023-01-11T04:52:59.430Z,11.35
2023-01-11T04:55:26.257Z,11.34
2023-01-11T04:57:53.110Z,11.31
2023-01-11T05:00:20.222Z,11.31
2023-01-11T05:02:47.058Z,11.29
2023-01-11T05:05:13.974Z,11.29
2023-01-11T05:07:41.159Z,11.31
2023-01-11T05:10:08.591Z,11.29
2023-01-11T05:12:35.504Z,11.27
2023-01-11T05:15:02.385Z,11.35
2023-01-11T05:17:29.325Z,11.30
2023-01-11T05:19:56.230Z,11.29
2023-01-11T05:22:23.176Z,11.33
2023-01-11T05:24:50.073Z,11.28
2023-01-11T05:27:16.962Z,11.26
2023-01-11T05:29:44.489Z,11.26
2023-01-11T05:32:12.497Z,11.28
2023-01-11T05:34:39.442Z,11.28
2023-01-11T05:37:06.727Z,11.29
2023-01-11T05:39:33.629Z,11.30
2023-01-11T05:42:00.556Z,11.29
2023-01-11T05:44:46.294Z,11.23
2023-01-11T05:47:13.258Z,11.23
2023-01-11T05:49:40.527Z,11.25
2023-01-11T05:52:07.564Z,11.16
2023-01-11T05:54:34.504Z,11.10
2023-01-11T05:57:01.397Z,11.06
2023-01-11T05:59:30.459Z,11.11
2023-01-11T06:01:59.117Z,11.08
2023-01-11T06:04:26.182Z,11.15
2023-01-11T06:06:53.244Z,11.11
2023-01-11T06:09:20.256Z,11.07
2023-01-11T06:11:47.143Z,11.06
2023-01-11T06:14:14.175Z,11.00
2023-01-11T06:16:41.187Z,10.96
2023-01-11T06:19:08.126Z,11.00
2023-01-11T06:21:35.766Z,10.93
2023-01-11T06:24:02.708Z,10.87
2023-01-11T06:26:29.573Z,10.93
2023-01-11T06:28:56.537Z,10.92
2023-01-11T06:31:23.547Z,10.89
2023-01-11T06:33:50.575Z,10.84
2023-01-11T06:36:17.490Z,10.86
2023-01-11T06:38:44.904Z,10.87
2023-01-11T06:41:12.392Z,10.93
2023-01-11T06:43:42.054Z,10.87
2023-01-11T06:46:14.535Z,10.83
2023-01-11T06:48:41.621Z,10.85
2023-01-11T06:51:11.202Z,10.83
2023-01-11T06:53:38.697Z,10.84
2023-01-11T06:56:05.994Z,10.86
2023-01-11T06:58:32.892Z,10.89
2023-01-11T07:01:00.065Z,10.91
2023-01-11T07:03:27.533Z,10.94
2023-01-11T07:05:57.102Z,10.95
2023-01-11T07:08:28.171Z,10.95
2023-01-11T07:10:55.606Z,10.91
2023-01-11T07:13:23.239Z,10.92
2023-01-11T07:15:51.018Z,10.87
2023-01-11T07:18:19.023Z,10.88
2023-01-11T07:20:46.209Z,10.86
2023-01-11T07:23:13.212Z,10.91
2023-01-11T07:25:40.209Z,10.85
2023-01-11T07:28:08.662Z,10.83
2023-01-11T07:30:55.343Z,10.83
2023-01-11T07:33:23.858Z,10.81
2023-01-11T07:35:50.786Z,10.80
2023-01-11T07:38:17.663Z,10.83
2023-01-11T07:40:44.674Z,10.85
2023-01-11T07:43:16.107Z,10.84
2023-01-11T07:45:50.133Z,10.84
2023-01-11T07:48:21.154Z,10.85
2023-01-11T07:50:48.986Z,10.83
2023-01-11T07:53:15.992Z,10.85
2023-01-11T07:55:43.778Z,10.87
2023-01-11T07:58:14.943Z,10.87
2023-01-11T08:00:41.916Z,10.86
2023-01-11T08:03:09.351Z,10.84
2023-01-11T08:05:36.690Z,10.83
2023-01-11T08:08:04.235Z,10.81
2023-01-11T08:10:31.129Z,10.87
2023-01-11T08:13:16.440Z,10.83
2023-01-11T08:15:43.502Z,10.80
2023-01-11T08:18:11.977Z,10.77
2023-01-11T08:20:39.714Z,10.77
2023-01-11T08:23:08.730Z,10.74
2023-01-11T08:25:36.137Z,10.73
2023-01-11T08:28:04.688Z,10.73
2023-01-11T08:30:31.748Z,10.75
2023-01-11T08:33:01.081Z,10.77
2023-01-11T08:35:27.986Z,10.79
2023-01-11T08:37:54.942Z,10.81
2023-01-11T08:40:24.084Z,10.80
2023-01-11T08:42:56.541Z,10.85
2023-01-11T08:45:23.566Z,10.87
2023-01-11T08:47:52.266Z,10.88
2023-01-11T08:50:20.255Z,10.92
2023-01-11T08:52:51.100Z,10.97
2023-01-11T08:55:19.000Z,10.98
2023-01-11T08:57:46.246Z,10.99
2023-01-11T09:00:14.026Z,11.08
2023-01-11T09:02:41.101Z,11.12
2023-01-11T09:05:08.385Z,11.09
2023-01-11T09:07:35.356Z,11.12
2023-01-11T09:10:02.387Z,11.13
2023-01-11T09:12:29.331Z,11.15
2023-01-11T09:14:56.306Z,11.16
2023-01-11T09:17:23.220Z,11.21
2023-01-11T09:19:50.368Z,11.23
2023-01-11T09:22:17.298Z,11.24
2023-01-11T09:24:44.187Z,11.24
2023-01-11T09:27:12.019Z,11.26
2023-01-11T09:29:39.148Z,11.28
2023-01-11T09:32:06.783Z,11.30
2023-01-11T09:34:33.733Z,11.30
2023-01-11T09:37:02.836Z,11.29
2023-01-11T09:39:29.985Z,11.28
2023-01-11T09:42:06.314Z,11.27
2023-01-11T09:44:36.112Z,11.32
2023-01-11T09:47:14.962Z,11.33
2023-01-11T09:49:45.945Z,11.36
2023-01-11T09:52:34.518Z,11.34
2023-01-11T09:55:01.662Z,11.38
2023-01-11T09:57:34.525Z,11.41
2023-01-11T10:00:14.917Z,11.46
2023-01-11T10:03:07.029Z,11.49
2023-01-11T10:05:42.251Z,11.50
2023-01-11T10:18:31.014Z,11.57
2023-01-11T10:18:39.290Z,11.60
2023-01-11T10:20:46.822Z,11.64
2023-01-11T10:23:29.147Z,11.67
2023-01-11T10:25:59.458Z,11.71
2023-01-11T10:28:43.310Z,11.75
2023-01-11T10:31:43.282Z,11.79
2023-01-11T10:34:38.343Z,11.82
2023-01-11T10:37:34.214Z,11.85
2023-01-11T10:40:40.743Z,11.86
2023-01-11T10:43:17.225Z,11.88
2023-01-11T10:45:56.096Z,11.90
2023-01-11T10:48:35.287Z,11.91
2023-01-11T10:51:28.125Z,11.93
2023-01-11T10:54:09.932Z,11.95
2023-01-11T10:57:02.584Z,11.96
2023-01-11T10:59:56.485Z,11.99
2023-01-11T11:02:26.372Z,12.02
2023-01-11T11:05:06.149Z,12.03
2023-01-11T11:07:53.468Z,12.06
2023-01-11T11:10:33.256Z,12.10
2023-01-11T11:13:11.585Z,12.12
2023-01-11T11:15:50.581Z,12.10
2023-01-11T11:18:17.500Z,12.12
2023-01-11T11:20:46.553Z,12.10
2023-01-11T11:23:17.730Z,12.09
2023-01-11T11:25:49.383Z,12.08
2023-01-11T11:28:31.009Z,12.08
2023-01-11T11:31:00.477Z,12.07
2023-01-11T11:33:37.336Z,12.06
2023-01-11T11:36:08.144Z,12.07
2023-01-11T11:38:37.305Z,12.07
2023-01-11T11:41:17.372Z,12.08
2023-01-11T11:43:45.974Z,12.11
2023-01-11T11:46:19.429Z,12.12
2023-01-11T11:49:17.800Z,12.15
2023-01-11T11:51:46.450Z,12.16
2023-01-11T11:54:24.963Z,12.21
2023-01-11T11:56:52.057Z,12.24
2023-01-11T11:59:21.210Z,12.32
2023-01-11T12:01:55.652Z,12.34
2023-01-11T12:04:25.089Z,12.40
2023-01-11T12:07:16.702Z,12.44
2023-01-11T12:10:07.145Z,12.48
2023-01-11T12:12:34.638Z,12.50
2023-01-11T12:15:19.814Z,12.51
2023-01-11T12:17:47.251Z,12.52
2023-01-11T12:20:23.168Z,12.56
2023-01-11T12:22:51.105Z,12.58
2023-01-11T12:25:17.954Z,12.60
2023-01-11T12:28:03.032Z,12.62
2023-01-11T12:30:51.887Z,12.65
2023-01-11T12:33:21.838Z,12.66
2023-01-11T12:36:03.170Z,12.66
2023-01-11T12:38:40.029Z,12.68
2023-01-11T12:41:44.921Z,12.69
2023-01-11T12:44:15.775Z,12.72
2023-01-11T12:47:01.272Z,12.73
2023-01-11T12:49:46.601Z,12.72
2023-01-11T12:52:36.255Z,12.75
2023-01-11T12:55:23.476Z,12.78
2023-01-11T12:58:02.466Z,12.81
2023-01-11T13:00:47.901Z,12.83
2023-01-11T13:03:36.891Z,12.86
2023-01-11T13:06:25.377Z,12.88
2023-01-11T13:09:23.175Z,12.90
2023-01-11T13:12:25.988Z,12.89
2023-01-11T13:15:21.692Z,12.88
2023-01-11T13:18:05.018Z,12.89
2023-01-11T13:21:00.056Z,12.90
2023-01-11T13:23:33.399Z,12.90
2023-01-11T13:26:17.727Z,12.87
2023-01-11T13:28:47.203Z,12.87
2023-01-11T13:31:15.661Z,12.87
2023-01-11T13:33:47.430Z,12.85
2023-01-11T13:36:23.233Z,12.84
2023-01-11T13:39:15.077Z,12.83
2023-01-11T13:41:47.000Z,12.83
2023-01-11T13:44:20.795Z,12.84
2023-01-11T13:46:57.411Z,12.84
2023-01-11T13:50:01.132Z,12.84
2023-01-11T13:52:31.721Z,12.84
2023-01-11T13:54:59.126Z,12.87
2023-01-11T13:57:53.824Z,12.85
2023-01-11T14:00:31.363Z,12.86
2023-01-11T14:03:03.392Z,12.88
2023-01-11T14:05:36.547Z,12.87
2023-01-11T14:08:24.318Z,12.86
2023-01-11T14:11:21.084Z,12.84
2023-01-11T14:14:16.736Z,12.82
2023-01-11T14:17:12.617Z,12.80
2023-01-11T14:19:46.769Z,12.77
2023-01-11T14:22:26.232Z,12.77
2023-01-11T14:25:13.292Z,12.77
2023-01-11T14:28:10.584Z,12.76
2023-01-11T14:30:56.044Z,12.74
2023-01-11T14:33:45.871Z,12.75
2023-01-11T14:36:21.880Z,12.74
2023-01-11T14:38:51.629Z,12.73
2023-01-11T14:41:51.616Z,12.73
2023-01-11T14:44:26.475Z,12.73
2023-01-11T14:46:59.220Z,12.73
2023-01-11T14:49:49.905Z,12.72
2023-01-11T14:52:38.440Z,12.72
2023-01-11T14:55:19.370Z,12.71
2023-01-11T14:57:55.578Z,12.70
2023-01-11T15:00:22.439Z,12.68
2023-01-11T15:02:53.255Z,12.66
2023-01-11T15:05:33.125Z,12.65
2023-01-11T15:08:15.208Z,12.62
2023-01-11T15:10:52.379Z,12.61
2023-01-11T15:13:28.511Z,12.61
2023-01-11T15:16:27.457Z,12.58
2023-01-11T15:18:55.189Z,12.57
2023-01-11T15:21:23.919Z,12.54
2023-01-11T15:23:54.717Z,12.53
2023-01-11T15:26:23.927Z,12.50
2023-01-11T15:28:58.111Z,12.50
2023-01-11T15:31:34.487Z,12.51
2023-01-11T15:34:17.952Z,12.47
2023-01-11T15:37:02.730Z,12.51
2023-01-11T15:39:46.586Z,12.46
2023-01-11T15:42:16.266Z,12.47
2023-01-11T15:45:06.688Z,12.49
2023-01-11T15:47:55.564Z,12.48
2023-01-11T15:50:55.988Z,12.48
2023-01-11T15:53:22.830Z,12.49
2023-01-11T15:55:58.704Z,12.47
2023-01-11T15:58:48.923Z,12.48
2023-01-11T16:01:22.572Z,12.45
2023-01-11T16:04:00.899Z,12.43
2023-01-11T16:06:45.025Z,12.42
2023-01-11T16:09:49.508Z,12.42
2023-01-11T16:12:34.691Z,12.40
2023-01-11T16:15:35.785Z,12.39
2023-01-11T16:18:25.145Z,12.36
2023-01-11T16:21:30.608Z,12.34
2023-01-11T16:23:57.823Z,12.32
2023-01-11T16:26:24.942Z,12.32
2023-01-11T16:28:55.277Z,12.31
2023-01-11T16:31:22.776Z,12.28
2023-01-11T16:33:50.192Z,12.30
2023-01-11T16:36:21.338Z,12.29
2023-01-11T16:39:05.432Z,12.30
2023-01-11T16:41:47.223Z,12.29
2023-01-11T16:44:49.010Z,12.24
2023-01-11T16:47:19.696Z,12.24
2023-01-11T16:49:49.555Z,12.23
2023-01-11T16:52:28.897Z,12.20
2023-01-11T16:54:57.688Z,12.19
2023-01-11T16:57:30.561Z,12.17
2023-01-11T17:00:03.055Z,12.17
2023-01-11T17:02:33.021Z,12.21
2023-01-11T17:05:00.821Z,12.17
2023-01-11T17:07:29.687Z,12.15
2023-01-11T17:10:22.907Z,12.13
2023-01-11T17:13:43.789Z,12.12
2023-01-11T17:16:14.322Z,12.11
2023-01-11T17:18:42.303Z,12.10
2023-01-11T17:21:25.189Z,12.09
2023-01-11T17:23:54.363Z,12.10
2023-01-11T17:26:23.963Z,12.11
2023-01-11T17:28:53.557Z,12.08
2023-01-11T17:31:24.909Z,12.10
2023-01-11T17:34:19.335Z,12.10
2023-01-11T17:36:47.131Z,12.11
2023-01-11T17:39:28.785Z,12.10
2023-01-11T17:42:16.391Z,12.12
2023-01-11T17:45:02.691Z,12.11
2023-01-11T17:47:30.201Z,12.09
2023-01-11T17:50:01.084Z,12.08
2023-01-11T17:52:29.653Z,12.07
2023-01-11T17:55:19.643Z,12.07
2023-01-11T17:58:27.675Z,12.06
2023-01-11T18:01:14.023Z,12.07
2023-01-11T18:03:52.854Z,12.08
2023-01-11T18:06:28.482Z,12.07
2023-01-11T18:08:56.469Z,12.07
2023-01-11T18:11:32.575Z,12.06
2023-01-11T18:14:01.624Z,12.10
2023-01-11T18:16:29.028Z,12.13
2023-01-11T18:18:56.506Z,12.13
2023-01-11T18:21:26.417Z,12.12
2023-01-11T18:24:11.475Z,12.14
2023-01-11T18:26:42.666Z,12.15
2023-01-11T18:29:37.343Z,12.18
2023-01-11T18:32:10.535Z,12.17
2023-01-11T18:34:37.495Z,12.15
2023-01-11T18:37:07.924Z,12.15
2023-01-11T18:39:35.359Z,12.16
2023-01-11T18:42:09.467Z,12.17
2023-01-11T18:44:38.012Z,12.15
2023-01-11T18:47:22.641Z,12.16
2023-01-11T18:49:51.830Z,12.17
2023-01-11T18:52:20.409Z,12.18
2023-01-11T18:54:48.041Z,12.19
2023-01-11T18:57:15.083Z,12.18
2023-01-11T18:59:42.266Z,12.19
2023-01-11T19:02:18.010Z,12.21
2023-01-11T19:04:45.276Z,12.20
2023-01-11T19:07:12.792Z,12.20
2023-01-11T19:09:39.789Z,12.20
2023-01-11T19:12:07.044Z,12.18
2023-01-11T19:14:34.183Z,12.19
2023-01-11T19:17:01.131Z,12.21
2023-01-11T19:19:28.013Z,12.20
2023-01-11T19:21:55.120Z,12.21
2023-01-11T19:24:22.024Z,12.23
2023-01-11T19:26:49.367Z,12.22
2023-01-11T19:29:18.913Z,12.22
2023-01-11T19:31:46.913Z,12.22
2023-01-11T19:34:14.493Z,12.22
2023-01-11T19:36:41.437Z,12.22
2023-01-11T19:39:08.754Z,12.22
2023-01-11T19:41:54.919Z,12.23
2023-01-11T19:44:22.603Z,12.23
2023-01-11T19:46:53.087Z,12.22
2023-01-11T19:49:27.894Z,12.24
2023-01-11T19:51:55.175Z,12.24
2023-01-11T19:54:23.561Z,12.24
2023-01-11T19:56:50.757Z,12.27
2023-01-11T19:59:17.963Z,12.28
2023-01-11T20:01:45.770Z,12.29
2023-01-11T20:04:13.639Z,12.32
2023-01-11T20:06:50.399Z,12.30
2023-01-11T20:09:19.037Z,12.31
2023-01-11T20:11:46.414Z,12.32
2023-01-11T20:14:13.359Z,12.29
2023-01-11T20:16:40.289Z,12.31
2023-01-11T20:19:07.296Z,12.31
2023-01-11T20:21:34.647Z,12.32
2023-01-11T20:24:02.389Z,12.32
2023-01-11T20:26:30.981Z,12.34
2023-01-11T20:28:58.446Z,12.33
2023-01-11T20:31:28.417Z,12.31
2023-01-11T20:33:56.273Z,12.34
2023-01-11T20:36:24.201Z,12.36
2023-01-11T20:38:51.353Z,12.36
2023-01-11T20:41:39.545Z,12.36
2023-01-11T20:44:07.325Z,12.38
2023-01-11T20:46:35.201Z,12.38
2023-01-11T20:49:02.260Z,12.35
2023-01-11T20:51:29.250Z,12.35
2023-01-11T20:53:56.268Z,12.35
2023-01-11T20:56:23.251Z,12.35
2023-01-11T20:58:52.298Z,12.36
2023-01-11T21:01:26.824Z,12.36
2023-01-11T21:03:54.624Z,12.35
2023-01-11T21:06:21.810Z,12.35
2023-01-11T21:08:49.127Z,12.36
2023-01-11T21:11:16.714Z,12.34
2023-01-11T21:13:43.652Z,12.35
2023-01-11T21:16:15.830Z,12.36
2023-01-11T21:18:44.383Z,12.37
2023-01-11T21:21:17.038Z,12.39
2023-01-11T21:23:44.583Z,12.40
2023-01-11T21:26:18.832Z,12.39
2023-01-11T21:28:51.777Z,12.39
2023-01-11T21:31:21.583Z,12.38
2023-01-11T21:33:49.706Z,12.38
2023-01-11T21:36:20.818Z,12.37
2023-01-11T21:38:48.163Z,12.37
2023-01-11T21:41:17.858Z,12.38
2023-01-11T21:43:45.609Z,12.36
2023-01-11T21:46:13.298Z,12.38
2023-01-11T21:48:40.739Z,12.39
2023-01-11T21:51:10.108Z,12.39
2023-01-11T21:53:38.045Z,12.39
2023-01-11T21:56:06.944Z,12.36
2023-01-11T21:58:34.495Z,12.36
2023-01-11T22:01:10.391Z,12.35
2023-01-11T22:03:38.005Z,12.36
2023-01-11T22:06:05.977Z,12.35
2023-01-11T22:08:37.450Z,12.35
2023-01-11T22:11:06.123Z,12.34
2023-01-11T22:13:35.021Z,12.35
2023-01-11T22:16:11.253Z,12.34
2023-01-11T22:18:39.437Z,12.34
2023-01-11T22:21:14.592Z,12.31
2023-01-11T22:23:41.800Z,12.32
2023-01-11T22:26:11.285Z,12.28
2023-01-11T22:28:58.572Z,12.30
2023-01-11T22:31:27.892Z,12.32
2023-01-11T22:33:56.946Z,12.31
2023-01-11T22:36:25.411Z,12.32
2023-01-11T22:38:53.346Z,12.33
2023-01-11T22:41:21.003Z,12.32
2023-01-11T22:43:48.431Z,12.31
2023-01-11T22:46:21.397Z,12.30
2023-01-11T22:48:48.976Z,12.28
2023-01-11T22:51:17.403Z,12.29
2023-01-11T22:53:45.945Z,12.30
2023-01-11T22:56:15.093Z,12.30
2023-01-11T22:58:42.000Z,12.31
2023-01-11T23:01:28.398Z,12.33
2023-01-11T23:03:55.909Z,12.32
2023-01-11T23:06:28.492Z,12.33
2023-01-11T23:08:56.033Z,12.33
2023-01-11T23:11:44.074Z,12.35
2023-01-11T23:14:14.042Z,12.35
2023-01-11T23:16:41.375Z,12.36
2023-01-11T23:19:09.494Z,12.37
2023-01-11T23:21:36.925Z,12.38
2023-01-11T23:24:03.991Z,12.35
2023-01-11T23:26:30.968Z,12.36
2023-01-11T23:28:57.924Z,12.37
2023-01-11T23:31:26.183Z,12.37
2023-01-11T23:33:55.454Z,12.38
2023-01-11T23:36:24.608Z,12.40
2023-01-11T23:38:51.575Z,12.39
2023-01-11T23:41:38.446Z,12.39
2023-01-11T23:44:07.476Z,12.40
2023-01-11T23:46:52.733Z,12.39
2023-01-11T23:49:19.685Z,12.37
2023-01-11T23:51:46.978Z,12.39
2023-01-11T23:54:14.361Z,12.39
2023-01-11T23:56:41.337Z,12.40
2023-01-11T23:59:08.370Z,12.39
